sensor_id;sensor_type;location;lat;lon;timestamp;pressure;altitude;pressure_sealevel;temperature;humidity
77723;BME280;67811;42.656;23.394;2023-08-06T00:02:23;93970.59;;;18.73;80.43
77723;BME280;67811;42.656;23.394;2023-08-06T00:04:48;93979.94;;;18.65;82.17
77723;BME280;67811;42.656;23.394;2023-08-06T00:07:13;93990.41;;;18.66;84.06
77723;BME280;67811;42.656;23.394;2023-08-06T00:09:39;93973.06;;;18.79;84.80
77723;BME280;67811;42.656;23.394;2023-08-06T00:12:04;93972.56;;;18.92;83.72
77723;BME280;67811;42.656;23.394;2023-08-06T00:14:30;93997.56;;;19.03;83.49
77723;BME280;67811;42.656;23.394;2023-08-06T00:16:55;93984.44;;;19.07;81.71
77723;BME280;67811;42.656;23.394;2023-08-06T00:19:20;93965.38;;;19.08;82.97
77723;BME280;67811;42.656;23.394;2023-08-06T00:21:45;93978.81;;;19.13;84.53
77723;BME280;67811;42.656;23.394;2023-08-06T00:24:11;93982.56;;;19.12;83.99
77723;BME280;67811;42.656;23.394;2023-08-06T00:26:36;93974.53;;;19.28;83.38
77723;BME280;67811;42.656;23.394;2023-08-06T00:29:01;93969.16;;;19.28;82.06
77723;BME280;67811;42.656;23.394;2023-08-06T00:31:26;93959.22;;;19.28;82.03
77723;BME280;67811;42.656;23.394;2023-08-06T00:33:52;93965.41;;;19.39;83.07
77723;BME280;67811;42.656;23.394;2023-08-06T00:36:17;93959.75;;;19.25;82.09
77723;BME280;67811;42.656;23.394;2023-08-06T00:38:42;93953.31;;;19.26;83.67
77723;BME280;67811;42.656;23.394;2023-08-06T00:41:07;93941.78;;;19.41;82.35
77723;BME280;67811;42.656;23.394;2023-08-06T00:43:33;93947.69;;;19.33;82.05
77723;BME280;67811;42.656;23.394;2023-08-06T00:45:58;93942.84;;;19.35;82.27
77723;BME280;67811;42.656;23.394;2023-08-06T00:48:23;93945.28;;;19.41;82.05
77723;BME280;67811;42.656;23.394;2023-08-06T00:50:49;93943.94;;;19.29;81.09
77723;BME280;67811;42.656;23.394;2023-08-06T00:53:14;93935.03;;;19.28;82.52
77723;BME280;67811;42.656;23.394;2023-08-06T00:55:39;93938.28;;;19.35;82.79
77723;BME280;67811;42.656;23.394;2023-08-06T00:58:05;93935.59;;;19.30;81.07
77723;BME280;67811;42.656;23.394;2023-08-06T01:00:30;93922.66;;;19.12;82.56
77723;BME280;67811;42.656;23.394;2023-08-06T01:02:56;93927.50;;;19.05;83.12
77723;BME280;67811;42.656;23.394;2023-08-06T01:05:22;93910.81;;;18.92;83.42
77723;BME280;67811;42.656;23.394;2023-08-06T01:08:12;93906.56;;;19.12;84.00
77723;BME280;67811;42.656;23.394;2023-08-06T01:15:46;93895.59;;;19.24;81.14
77723;BME280;67811;42.656;23.394;2023-08-06T01:18:12;93892.63;;;19.30;81.57
77723;BME280;67811;42.656;23.394;2023-08-06T01:20:37;93897.47;;;19.48;80.99
77723;BME280;67811;42.656;23.394;2023-08-06T01:23:03;93889.13;;;19.40;81.19
77723;BME280;67811;42.656;23.394;2023-08-06T01:25:45;93877.81;;;19.02;83.73
77723;BME280;67811;42.656;23.394;2023-08-06T01:28:21;93881.59;;;19.21;84.09
77723;BME280;67811;42.656;23.394;2023-08-06T01:30:49;93876.78;;;19.13;83.29
77723;BME280;67811;42.656;23.394;2023-08-06T01:33:16;93873.78;;;19.00;83.38
77723;BME280;67811;42.656;23.394;2023-08-06T01:35:44;93878.34;;;18.94;83.97
77723;BME280;67811;42.656;23.394;2023-08-06T01:38:11;93889.91;;;19.15;83.42
77723;BME280;67811;42.656;23.394;2023-08-06T01:40:36;93878.09;;;19.06;83.16
77723;BME280;67811;42.656;23.394;2023-08-06T01:43:02;93865.47;;;19.06;82.32
77723;BME280;67811;42.656;23.394;2023-08-06T01:45:27;93864.66;;;19.06;83.45
77723;BME280;67811;42.656;23.394;2023-08-06T01:47:52;93863.06;;;19.05;82.74
77723;BME280;67811;42.656;23.394;2023-08-06T01:50:17;93862.53;;;19.03;83.96
77723;BME280;67811;42.656;23.394;2023-08-06T01:52:43;93859.81;;;18.92;83.12
77723;BME280;67811;42.656;23.394;2023-08-06T01:55:08;93867.34;;;18.85;84.18
77723;BME280;67811;42.656;23.394;2023-08-06T01:57:33;93865.47;;;18.96;84.63
77723;BME280;67811;42.656;23.394;2023-08-06T01:59:58;93869.22;;;18.95;85.00
77723;BME280;67811;42.656;23.394;2023-08-06T02:02:24;93875.41;;;18.90;84.21
77723;BME280;67811;42.656;23.394;2023-08-06T02:04:49;93878.63;;;19.03;84.75
77723;BME280;67811;42.656;23.394;2023-08-06T02:07:14;93867.34;;;19.06;84.40
77723;BME280;67811;42.656;23.394;2023-08-06T02:09:40;93856.59;;;19.11;84.49
77723;BME280;67811;42.656;23.394;2023-08-06T02:12:05;93842.66;;;19.29;83.48
77723;BME280;67811;42.656;23.394;2023-08-06T02:14:31;93850.72;;;19.09;84.40
77723;BME280;67811;42.656;23.394;2023-08-06T02:16:56;93863.59;;;19.02;83.65
77723;BME280;67811;42.656;23.394;2023-08-06T02:19:21;93863.84;;;18.80;84.71
77723;BME280;67811;42.656;23.394;2023-08-06T02:21:47;93851.75;;;18.87;84.77
77723;BME280;67811;42.656;23.394;2023-08-06T02:24:12;93875.09;;;18.77;85.57
77723;BME280;67811;42.656;23.394;2023-08-06T02:26:37;93871.34;;;18.83;85.87
77723;BME280;67811;42.656;23.394;2023-08-06T02:29:02;93867.28;;;18.70;86.00
77723;BME280;67811;42.656;23.394;2023-08-06T02:31:28;93891.63;;;18.53;87.59
77723;BME280;67811;42.656;23.394;2023-08-06T02:33:53;93892.72;;;18.52;88.13
77723;BME280;67811;42.656;23.394;2023-08-06T02:36:18;93876.59;;;18.52;88.10
77723;BME280;67811;42.656;23.394;2023-08-06T02:38:43;93878.19;;;18.48;87.64
77723;BME280;67811;42.656;23.394;2023-08-06T02:41:09;93882.03;;;18.73;88.31
77723;BME280;67811;42.656;23.394;2023-08-06T02:43:34;93898.63;;;18.64;86.90
77723;BME280;67811;42.656;23.394;2023-08-06T02:46:00;93912.84;;;18.60;87.09
77723;BME280;67811;42.656;23.394;2023-08-06T02:48:25;93917.69;;;18.58;87.66
77723;BME280;67811;42.656;23.394;2023-08-06T02:50:51;93914.22;;;18.67;87.94
77723;BME280;67811;42.656;23.394;2023-08-06T02:53:16;93897.00;;;18.58;88.15
77723;BME280;67811;42.656;23.394;2023-08-06T02:55:48;93890.63;;;18.69;87.44
77723;BME280;67811;42.656;23.394;2023-08-06T02:58:14;93866.53;;;18.80;88.28
77723;BME280;67811;42.656;23.394;2023-08-06T03:00:39;93867.34;;;18.85;87.00
77723;BME280;67811;42.656;23.394;2023-08-06T03:03:04;93868.41;;;18.79;87.83
77723;BME280;67811;42.656;23.394;2023-08-06T03:05:30;93874.81;;;18.83;87.49
77723;BME280;67811;42.656;23.394;2023-08-06T03:07:55;93859.00;;;18.87;87.06
77723;BME280;67811;42.656;23.394;2023-08-06T03:10:20;93837.53;;;18.92;87.79
77723;BME280;67811;42.656;23.394;2023-08-06T03:12:46;93831.09;;;18.83;87.79
77723;BME280;67811;42.656;23.394;2023-08-06T03:15:11;93819.28;;;18.99;89.26
77723;BME280;67811;42.656;23.394;2023-08-06T03:17:36;93825.75;;;19.13;88.93
77723;BME280;67811;42.656;23.394;2023-08-06T03:20:02;93866.28;;;19.12;87.20
77723;BME280;67811;42.656;23.394;2023-08-06T03:22:27;93859.28;;;18.85;86.53
77723;BME280;67811;42.656;23.394;2023-08-06T03:24:52;93827.09;;;18.90;88.37
77723;BME280;67811;42.656;23.394;2023-08-06T03:27:17;93822.78;;;18.94;89.72
77723;BME280;67811;42.656;23.394;2023-08-06T03:29:43;93856.34;;;18.97;87.91
77723;BME280;67811;42.656;23.394;2023-08-06T03:32:08;93877.50;;;18.83;86.92
77723;BME280;67811;42.656;23.394;2023-08-06T03:34:33;93894.84;;;18.55;88.99
77723;BME280;67811;42.656;23.394;2023-08-06T03:36:58;93894.31;;;18.53;90.03
77723;BME280;67811;42.656;23.394;2023-08-06T03:39:24;93887.59;;;18.51;92.47
77723;BME280;67811;42.656;23.394;2023-08-06T03:41:49;93871.00;;;18.64;93.01
77723;BME280;67811;42.656;23.394;2023-08-06T03:44:14;93854.91;;;18.64;91.86
77723;BME280;67811;42.656;23.394;2023-08-06T03:46:39;93881.50;;;18.71;91.83
77723;BME280;67811;42.656;23.394;2023-08-06T03:49:05;93886.56;;;18.67;90.17
77723;BME280;67811;42.656;23.394;2023-08-06T03:51:30;93899.13;;;18.46;90.21
77723;BME280;67811;42.656;23.394;2023-08-06T03:53:55;93896.06;;;18.27;90.91
77723;BME280;67811;42.656;23.394;2023-08-06T03:56:20;93892.84;;;18.20;91.91
77723;BME280;67811;42.656;23.394;2023-08-06T03:58:46;93900.69;;;18.37;92.29
77723;BME280;67811;42.656;23.394;2023-08-06T04:01:11;93905.00;;;18.43;90.68
77723;BME280;67811;42.656;23.394;2023-08-06T04:03:36;93923.56;;;18.55;90.64
77723;BME280;67811;42.656;23.394;2023-08-06T04:06:02;93932.91;;;18.42;91.75
77723;BME280;67811;42.656;23.394;2023-08-06T04:08:28;93936.03;;;18.29;92.53
77723;BME280;67811;42.656;23.394;2023-08-06T04:10:53;93926.56;;;18.11;91.47
77723;BME280;67811;42.656;23.394;2023-08-06T04:13:19;93909.63;;;18.05;92.12
77723;BME280;67811;42.656;23.394;2023-08-06T04:15:44;93893.84;;;18.09;92.73
77723;BME280;67811;42.656;23.394;2023-08-06T04:18:10;93868.97;;;18.24;93.10
77723;BME280;67811;42.656;23.394;2023-08-06T04:20:42;93860.16;;;18.33;92.80
77723;BME280;67811;42.656;23.394;2023-08-06T04:23:07;93876.28;;;18.43;92.09
77723;BME280;67811;42.656;23.394;2023-08-06T04:25:33;93885.50;;;18.63;89.60
77723;BME280;67811;42.656;23.394;2023-08-06T04:27:58;93871.25;;;18.57;90.31
77723;BME280;67811;42.656;23.394;2023-08-06T04:30:23;93873.13;;;18.62;90.00
77723;BME280;67811;42.656;23.394;2023-08-06T04:32:49;93874.41;;;18.44;90.99
77723;BME280;67811;42.656;23.394;2023-08-06T04:35:15;93875.75;;;18.41;92.53
77723;BME280;67811;42.656;23.394;2023-08-06T04:37:40;93880.34;;;18.51;92.53
77723;BME280;67811;42.656;23.394;2023-08-06T04:40:06;93866.44;;;18.59;93.58
77723;BME280;67811;42.656;23.394;2023-08-06T04:42:31;93850.41;;;18.75;93.35
77723;BME280;67811;42.656;23.394;2023-08-06T04:44:56;93846.09;;;18.84;91.55
77723;BME280;67811;42.656;23.394;2023-08-06T04:47:22;93840.22;;;18.82;90.79
77723;BME280;67811;42.656;23.394;2023-08-06T04:49:47;93839.13;;;18.83;90.26
77723;BME280;67811;42.656;23.394;2023-08-06T04:52:12;93822.78;;;19.00;89.86
77723;BME280;67811;42.656;23.394;2023-08-06T04:54:37;93828.94;;;18.95;88.25
77723;BME280;67811;42.656;23.394;2023-08-06T04:57:03;93824.38;;;19.06;88.60
77723;BME280;67811;42.656;23.394;2023-08-06T04:59:28;93810.16;;;19.15;88.27
77723;BME280;67811;42.656;23.394;2023-08-06T05:01:54;93816.88;;;19.28;89.18
77723;BME280;67811;42.656;23.394;2023-08-06T05:04:19;93817.41;;;19.30;87.18
77723;BME280;67811;42.656;23.394;2023-08-06T05:06:44;93811.47;;;19.43;87.25
77723;BME280;67811;42.656;23.394;2023-08-06T05:09:09;93816.31;;;19.52;87.39
77723;BME280;67811;42.656;23.394;2023-08-06T05:11:35;93820.34;;;19.49;86.64
77723;BME280;67811;42.656;23.394;2023-08-06T05:14:00;93820.88;;;19.61;86.27
77723;BME280;67811;42.656;23.394;2023-08-06T05:16:25;93842.84;;;21.13;79.29
77723;BME280;67811;42.656;23.394;2023-08-06T05:18:50;93835.75;;;22.39;73.97
77723;BME280;67811;42.656;23.394;2023-08-06T05:21:16;93836.53;;;22.63;70.34
77723;BME280;67811;42.656;23.394;2023-08-06T05:23:41;93831.25;;;22.10;72.89
77723;BME280;67811;42.656;23.394;2023-08-06T05:26:06;93825.41;;;21.98;73.28
77723;BME280;67811;42.656;23.394;2023-08-06T05:28:32;93820.81;;;21.98;72.67
77723;BME280;67811;42.656;23.394;2023-08-06T05:30:57;93826.28;;;21.93;75.12
77723;BME280;67811;42.656;23.394;2023-08-06T05:33:22;93828.81;;;22.75;73.65
77723;BME280;67811;42.656;23.394;2023-08-06T05:35:49;93820.06;;;23.21;71.12
77723;BME280;67811;42.656;23.394;2023-08-06T05:38:14;93819.47;;;23.89;67.90
77723;BME280;67811;42.656;23.394;2023-08-06T05:40:39;93806.72;;;23.76;66.87
77723;BME280;67811;42.656;23.394;2023-08-06T05:43:05;93804.91;;;23.72;68.07
77723;BME280;67811;42.656;23.394;2023-08-06T05:45:30;93803.84;;;23.86;67.41
77723;BME280;67811;42.656;23.394;2023-08-06T05:47:55;93797.34;;;24.01;66.04
77723;BME280;67811;42.656;23.394;2023-08-06T05:50:20;93809.25;;;24.28;66.66
77723;BME280;67811;42.656;23.394;2023-08-06T05:52:46;93809.13;;;23.78;65.93
77723;BME280;67811;42.656;23.394;2023-08-06T05:55:11;93805.94;;;23.89;66.32
77723;BME280;67811;42.656;23.394;2023-08-06T05:57:36;93807.16;;;24.11;65.86
77723;BME280;67811;42.656;23.394;2023-08-06T06:00:02;93803.41;;;23.65;66.23
77723;BME280;67811;42.656;23.394;2023-08-06T06:02:27;93809.13;;;23.78;64.47
77723;BME280;67811;42.656;23.394;2023-08-06T06:04:53;93811.75;;;23.83;65.81
77723;BME280;67811;42.656;23.394;2023-08-06T06:07:18;93823.72;;;24.09;65.29
77723;BME280;67811;42.656;23.394;2023-08-06T06:09:43;93827.47;;;23.48;65.44
77723;BME280;67811;42.656;23.394;2023-08-06T06:12:08;93831.44;;;23.18;63.77
77723;BME280;67811;42.656;23.394;2023-08-06T06:14:34;93837.69;;;23.00;65.40
77723;BME280;67811;42.656;23.394;2023-08-06T06:16:59;93846.25;;;23.39;65.27
77723;BME280;67811;42.656;23.394;2023-08-06T06:19:25;93842.56;;;24.14;61.57
77723;BME280;67811;42.656;23.394;2023-08-06T06:21:50;93861.16;;;24.35;61.74
77723;BME280;67811;42.656;23.394;2023-08-06T06:24:15;93855.91;;;24.25;59.40
77723;BME280;67811;42.656;23.394;2023-08-06T06:26:40;93865.22;;;24.18;61.43
77723;BME280;67811;42.656;23.394;2023-08-06T06:29:06;93860.00;;;24.08;61.54
77723;BME280;67811;42.656;23.394;2023-08-06T06:31:31;93858.66;;;23.92;59.62
77723;BME280;67811;42.656;23.394;2023-08-06T06:33:56;93858.34;;;23.61;60.20
77723;BME280;67811;42.656;23.394;2023-08-06T06:36:21;93866.22;;;23.06;60.90
77723;BME280;67811;42.656;23.394;2023-08-06T06:38:47;93872.00;;;22.99;62.70
77723;BME280;67811;42.656;23.394;2023-08-06T06:41:12;93873.19;;;22.69;63.72
77723;BME280;67811;42.656;23.394;2023-08-06T06:43:37;93880.97;;;22.95;63.74
77723;BME280;67811;42.656;23.394;2023-08-06T06:46:03;93890.28;;;22.83;64.13
77723;BME280;67811;42.656;23.394;2023-08-06T06:48:31;93895.44;;;23.04;62.73
77723;BME280;67811;42.656;23.394;2023-08-06T06:50:57;93896.75;;;23.44;61.55
77723;BME280;67811;42.656;23.394;2023-08-06T06:53:23;93892.66;;;23.28;60.47
77723;BME280;67811;42.656;23.394;2023-08-06T06:55:48;93903.03;;;23.21;60.98
77723;BME280;67811;42.656;23.394;2023-08-06T06:58:13;93907.78;;;23.29;60.70
77723;BME280;67811;42.656;23.394;2023-08-06T07:00:39;93908.00;;;23.70;59.80
77723;BME280;67811;42.656;23.394;2023-08-06T07:03:04;93909.16;;;24.29;58.33
77723;BME280;67811;42.656;23.394;2023-08-06T07:05:29;93903.84;;;24.38;57.94
77723;BME280;67811;42.656;23.394;2023-08-06T07:07:55;93901.94;;;23.92;58.15
77723;BME280;67811;42.656;23.394;2023-08-06T07:10:20;93909.19;;;23.97;59.15
77723;BME280;67811;42.656;23.394;2023-08-06T07:12:45;93908.31;;;24.15;57.95
77723;BME280;67811;42.656;23.394;2023-08-06T07:15:10;93914.19;;;24.50;57.28
77723;BME280;67811;42.656;23.394;2023-08-06T07:17:36;93916.19;;;24.99;56.18
77723;BME280;67811;42.656;23.394;2023-08-06T07:20:01;93916.94;;;25.41;55.24
77723;BME280;67811;42.656;23.394;2023-08-06T07:22:26;93911.25;;;26.10;52.81
77723;BME280;67811;42.656;23.394;2023-08-06T07:24:52;93914.94;;;25.33;52.81
77723;BME280;67811;42.656;23.394;2023-08-06T07:27:17;93916.16;;;25.27;52.11
77723;BME280;67811;42.656;23.394;2023-08-06T07:29:42;93911.88;;;25.48;51.49
77723;BME280;67811;42.656;23.394;2023-08-06T07:32:07;93918.00;;;25.54;51.26
77723;BME280;67811;42.656;23.394;2023-08-06T07:34:33;93910.63;;;25.68;49.69
77723;BME280;67811;42.656;23.394;2023-08-06T07:36:58;93906.56;;;25.79;48.45
77723;BME280;67811;42.656;23.394;2023-08-06T07:39:24;93917.28;;;25.62;47.97
77723;BME280;67811;42.656;23.394;2023-08-06T07:41:49;93906.38;;;25.75;46.75
77723;BME280;67811;42.656;23.394;2023-08-06T07:44:14;93907.50;;;25.97;46.98
77723;BME280;67811;42.656;23.394;2023-08-06T07:46:39;93908.97;;;26.03;47.54
77723;BME280;67811;42.656;23.394;2023-08-06T07:49:05;93913.97;;;25.15;47.43
77723;BME280;67811;42.656;23.394;2023-08-06T07:51:30;93912.53;;;25.67;46.57
77723;BME280;67811;42.656;23.394;2023-08-06T07:53:55;93920.06;;;25.93;46.92
77723;BME280;67811;42.656;23.394;2023-08-06T07:56:21;93911.34;;;26.58;44.98
77723;BME280;67811;42.656;23.394;2023-08-06T07:58:46;93905.34;;;26.39;44.83
77723;BME280;67811;42.656;23.394;2023-08-06T08:01:11;93915.81;;;26.00;46.12
77723;BME280;67811;42.656;23.394;2023-08-06T08:03:36;93916.84;;;26.13;44.79
77723;BME280;67811;42.656;23.394;2023-08-06T08:06:02;93906.94;;;26.40;44.78
77723;BME280;67811;42.656;23.394;2023-08-06T08:08:27;93901.47;;;27.11;43.68
77723;BME280;67811;42.656;23.394;2023-08-06T08:10:52;93898.69;;;26.93;43.44
77723;BME280;67811;42.656;23.394;2023-08-06T08:13:17;93887.84;;;26.53;44.46
77723;BME280;67811;42.656;23.394;2023-08-06T08:15:43;93890.63;;;26.40;44.88
77723;BME280;67811;42.656;23.394;2023-08-06T08:18:09;93905.31;;;26.61;45.28
77723;BME280;67811;42.656;23.394;2023-08-06T08:20:34;93917.50;;;26.10;48.21
77723;BME280;67811;42.656;23.394;2023-08-06T08:22:59;93912.06;;;25.88;48.41
77723;BME280;67811;42.656;23.394;2023-08-06T08:25:24;93913.41;;;25.77;48.79
77723;BME280;67811;42.656;23.394;2023-08-06T08:27:50;93913.81;;;25.84;48.12
77723;BME280;67811;42.656;23.394;2023-08-06T08:30:15;93920.06;;;25.93;47.76
77723;BME280;67811;42.656;23.394;2023-08-06T08:32:40;93913.59;;;26.56;46.42
77723;BME280;67811;42.656;23.394;2023-08-06T08:35:06;93913.28;;;26.35;47.01
77723;BME280;67811;42.656;23.394;2023-08-06T08:37:31;93921.22;;;26.23;47.74
77723;BME280;67811;42.656;23.394;2023-08-06T08:39:56;93919.59;;;26.84;45.23
77723;BME280;67811;42.656;23.394;2023-08-06T08:42:21;93914.16;;;27.33;44.15
77723;BME280;67811;42.656;23.394;2023-08-06T08:44:47;93897.38;;;27.91;42.08
77723;BME280;67811;42.656;23.394;2023-08-06T08:47:13;93896.41;;;27.87;42.44
77723;BME280;67811;42.656;23.394;2023-08-06T08:49:38;93906.44;;;28.21;43.29
77723;BME280;67811;42.656;23.394;2023-08-06T08:52:04;93900.47;;;28.45;42.35
77723;BME280;67811;42.656;23.394;2023-08-06T08:54:30;93899.56;;;28.06;41.38
77723;BME280;67811;42.656;23.394;2023-08-06T08:56:56;93898.00;;;27.88;41.84
77723;BME280;67811;42.656;23.394;2023-08-06T08:59:21;93887.13;;;27.88;41.20
77723;BME280;67811;42.656;23.394;2023-08-06T09:01:48;93877.91;;;28.36;40.92
77723;BME280;67811;42.656;23.394;2023-08-06T09:04:13;93887.63;;;28.46;40.56
77723;BME280;67811;42.656;23.394;2023-08-06T09:06:40;93877.19;;;28.95;40.14
77723;BME280;67811;42.656;23.394;2023-08-06T09:09:16;93882.22;;;28.37;40.45
77723;BME280;67811;42.656;23.394;2023-08-06T09:11:45;93877.78;;;28.62;40.32
77723;BME280;67811;42.656;23.394;2023-08-06T09:14:11;93874.19;;;28.79;40.28
77723;BME280;67811;42.656;23.394;2023-08-06T09:16:37;93878.09;;;29.07;39.77
77723;BME280;67811;42.656;23.394;2023-08-06T09:19:12;93879.53;;;29.05;39.51
77723;BME280;67811;42.656;23.394;2023-08-06T09:21:39;93878.50;;;29.18;39.44
77723;BME280;67811;42.656;23.394;2023-08-06T09:24:14;93859.75;;;28.78;39.84
77723;BME280;67811;42.656;23.394;2023-08-06T09:26:41;93863.84;;;29.02;40.34
77723;BME280;67811;42.656;23.394;2023-08-06T09:29:06;93870.41;;;29.01;40.53
77723;BME280;67811;42.656;23.394;2023-08-06T09:31:34;93873.94;;;29.01;39.79
77723;BME280;67811;42.656;23.394;2023-08-06T09:34:10;93859.53;;;28.92;40.17
77723;BME280;67811;42.656;23.394;2023-08-06T09:36:40;93861.69;;;28.78;38.78
77723;BME280;67811;42.656;23.394;2023-08-06T09:39:15;93861.06;;;28.34;40.11
77723;BME280;67811;42.656;23.394;2023-08-06T09:41:42;93849.13;;;28.09;41.36
77723;BME280;67811;42.656;23.394;2023-08-06T09:44:22;93861.97;;;29.14;38.96
77723;BME280;67811;42.656;23.394;2023-08-06T09:46:48;93841.06;;;28.68;37.67
77723;BME280;67811;42.656;23.394;2023-08-06T09:49:14;93848.38;;;28.29;38.25
77723;BME280;67811;42.656;23.394;2023-08-06T09:51:39;93855.50;;;28.89;37.98
77723;BME280;67811;42.656;23.394;2023-08-06T09:54:06;93844.81;;;28.55;37.97
77723;BME280;67811;42.656;23.394;2023-08-06T09:56:33;93853.97;;;27.77;38.31
77723;BME280;67811;42.656;23.394;2023-08-06T09:58:59;93848.84;;;27.24;39.59
77723;BME280;67811;42.656;23.394;2023-08-06T10:01:24;93849.81;;;27.54;40.08
77723;BME280;67811;42.656;23.394;2023-08-06T10:03:51;93854.00;;;27.43;39.99
77723;BME280;67811;42.656;23.394;2023-08-06T10:06:17;93862.78;;;27.22;41.36
77723;BME280;67811;42.656;23.394;2023-08-06T10:08:42;93865.66;;;27.17;40.08
77723;BME280;67811;42.656;23.394;2023-08-06T10:11:08;93862.56;;;26.93;40.44
77723;BME280;67811;42.656;23.394;2023-08-06T10:13:34;93857.69;;;26.72;39.67
77723;BME280;67811;42.656;23.394;2023-08-06T10:16:01;93869.03;;;26.35;40.41
77723;BME280;67811;42.656;23.394;2023-08-06T10:18:27;93870.38;;;26.15;40.75
77723;BME280;67811;42.656;23.394;2023-08-06T10:20:53;93869.63;;;26.23;40.74
77723;BME280;67811;42.656;23.394;2023-08-06T10:23:18;93860.50;;;27.07;39.10
77723;BME280;67811;42.656;23.394;2023-08-06T10:25:53;93870.84;;;26.88;39.75
77723;BME280;67811;42.656;23.394;2023-08-06T10:28:19;93880.03;;;26.61;41.00
77723;BME280;67811;42.656;23.394;2023-08-06T10:30:45;93881.31;;;26.55;41.21
77723;BME280;67811;42.656;23.394;2023-08-06T10:33:11;93875.69;;;26.51;40.88
77723;BME280;67811;42.656;23.394;2023-08-06T10:35:47;93873.69;;;26.65;40.77
77723;BME280;67811;42.656;23.394;2023-08-06T10:38:15;93884.91;;;26.90;40.74
77723;BME280;67811;42.656;23.394;2023-08-06T10:40:47;93882.53;;;26.97;40.60
77723;BME280;67811;42.656;23.394;2023-08-06T10:43:34;93875.78;;;26.37;41.39
77723;BME280;67811;42.656;23.394;2023-08-06T10:46:01;93890.75;;;26.04;42.99
77723;BME280;67811;42.656;23.394;2023-08-06T10:51:01;93902.06;;;25.74;44.40
77723;BME280;67811;42.656;23.394;2023-08-06T10:53:27;93897.13;;;25.99;43.62
77723;BME280;67811;42.656;23.394;2023-08-06T10:55:52;93905.03;;;25.87;43.71
77723;BME280;67811;42.656;23.394;2023-08-06T10:58:18;93902.75;;;25.80;43.83
77723;BME280;67811;42.656;23.394;2023-08-06T11:00:44;93914.91;;;25.46;44.31
77723;BME280;67811;42.656;23.394;2023-08-06T11:03:09;93908.38;;;25.70;44.16
77723;BME280;67811;42.656;23.394;2023-08-06T11:05:35;93914.81;;;25.38;44.66
77723;BME280;67811;42.656;23.394;2023-08-06T11:08:01;93915.56;;;25.16;45.11
77723;BME280;67811;42.656;23.394;2023-08-06T11:10:26;93920.88;;;25.35;45.11
77723;BME280;67811;42.656;23.394;2023-08-06T11:12:52;93917.53;;;25.38;44.84
77723;BME280;67811;42.656;23.394;2023-08-06T11:15:17;93919.91;;;25.53;44.56
77723;BME280;67811;42.656;23.394;2023-08-06T11:17:45;93913.69;;;25.89;44.44
77723;BME280;67811;42.656;23.394;2023-08-06T11:20:10;93914.84;;;26.50;42.71
77723;BME280;67811;42.656;23.394;2023-08-06T11:22:36;93921.56;;;26.30;43.11
77723;BME280;67811;42.656;23.394;2023-08-06T11:25:01;93927.22;;;26.11;43.29
77723;BME280;67811;42.656;23.394;2023-08-06T11:27:27;93930.22;;;26.55;42.55
77723;BME280;67811;42.656;23.394;2023-08-06T11:29:52;93932.88;;;26.23;42.75
77723;BME280;67811;42.656;23.394;2023-08-06T11:32:18;93942.84;;;25.83;43.67
77723;BME280;67811;42.656;23.394;2023-08-06T11:34:43;93943.09;;;25.59;39.49
77723;BME280;67811;42.656;23.394;2023-08-06T11:37:08;93951.41;;;25.27;39.85
77723;BME280;67811;42.656;23.394;2023-08-06T11:39:34;93940.97;;;25.34;41.09
77723;BME280;67811;42.656;23.394;2023-08-06T11:42:00;93933.56;;;24.84;43.84
77723;BME280;67811;42.656;23.394;2023-08-06T11:44:25;93937.09;;;24.85;45.03
77723;BME280;67811;42.656;23.394;2023-08-06T11:46:55;93943.38;;;25.21;44.66
77723;BME280;67811;42.656;23.394;2023-08-06T11:49:45;93930.69;;;25.44;46.58
77723;BME280;67811;42.656;23.394;2023-08-06T11:52:17;93930.88;;;25.48;46.03
77723;BME280;67811;42.656;23.394;2023-08-06T11:54:43;93923.63;;;25.93;45.69
77723;BME280;67811;42.656;23.394;2023-08-06T11:57:09;93928.38;;;25.88;45.21
77723;BME280;67811;42.656;23.394;2023-08-06T11:59:37;93928.97;;;26.07;45.58
77723;BME280;67811;42.656;23.394;2023-08-06T12:02:04;93912.31;;;26.31;44.46
77723;BME280;67811;42.656;23.394;2023-08-06T12:04:30;93925.91;;;26.09;44.60
77723;BME280;67811;42.656;23.394;2023-08-06T12:06:55;93931.16;;;25.60;44.87
77723;BME280;67811;42.656;23.394;2023-08-06T12:09:20;93927.97;;;26.03;43.74
77723;BME280;67811;42.656;23.394;2023-08-06T12:11:45;93943.84;;;26.10;42.72
77723;BME280;67811;42.656;23.394;2023-08-06T12:14:11;93923.34;;;27.05;41.27
77723;BME280;67811;42.656;23.394;2023-08-06T12:16:36;93925.25;;;27.71;39.43
77723;BME280;67811;42.656;23.394;2023-08-06T12:19:01;93916.53;;;28.21;38.90
77723;BME280;67811;42.656;23.394;2023-08-06T12:21:27;93907.03;;;28.53;38.23
77723;BME280;67811;42.656;23.394;2023-08-06T12:23:52;93901.53;;;28.61;37.54
77723;BME280;67811;42.656;23.394;2023-08-06T12:26:17;93899.44;;;28.03;37.80
77723;BME280;67811;42.656;23.394;2023-08-06T12:28:42;93900.72;;;27.97;38.99
77723;BME280;67811;42.656;23.394;2023-08-06T12:31:08;93899.13;;;27.61;39.38
77723;BME280;67811;42.656;23.394;2023-08-06T12:33:33;93894.19;;;26.97;39.98
77723;BME280;67811;42.656;23.394;2023-08-06T12:35:58;93894.81;;;26.86;40.22
77723;BME280;67811;42.656;23.394;2023-08-06T12:38:23;93889.84;;;26.79;40.20
77723;BME280;67811;42.656;23.394;2023-08-06T12:40:49;93900.63;;;26.93;40.09
77723;BME280;67811;42.656;23.394;2023-08-06T12:43:14;93916.34;;;26.65;40.92
77723;BME280;67811;42.656;23.394;2023-08-06T12:45:39;93907.06;;;26.35;40.74
77723;BME280;67811;42.656;23.394;2023-08-06T12:48:04;93898.31;;;26.38;40.94
77723;BME280;67811;42.656;23.394;2023-08-06T12:50:30;93900.66;;;25.99;40.96
77723;BME280;67811;42.656;23.394;2023-08-06T12:52:55;93909.72;;;25.95;41.91